Time;durP1;ratioP1;P1;durP2;ratioP2;P2;SDS_P1;SDS_P2;PMS_P1;PMS_P2;Temp;Humidity;BMP_temperature;BMP_pressure;BME280_temperature;BME280_humidity;BME280_pressure;Samples;Min_cycle;Max_cycle;Signal;HPM_P1;HPM_P2
2023/05/07 00:01:00;;;;;;;9.63;8.67;;;;;;;;;;5096481;28;20462;-72
2023/05/07 00:03:27;;;;;;;9.93;8.67;;;;;;;;;;5096049;28;20474;-72
2023/05/07 00:05:54;;;;;;;9.93;8.07;;;;;;;;;;5096273;28;20453;-73
2023/05/07 00:08:21;;;;;;;9.80;8.30;;;;;;;;;;5096099;28;20443;-73
2023/05/07 00:10:48;;;;;;;14.10;9.30;;;;;;;;;;5096217;28;20955;-72
2023/05/07 00:13:16;;;;;;;11.00;9.47;;;;;;;;;;5095995;28;20983;-72
2023/05/07 00:15:44;;;;;;;9.77;7.70;;;;;;;;;;5095593;28;20490;-72
2023/05/07 00:18:11;;;;;;;10.30;8.50;;;;;;;;;;5095894;28;20486;-72
2023/05/07 00:20:38;;;;;;;23.43;8.63;;;;;;;;;;5095914;28;20443;-72
2023/05/07 00:23:05;;;;;;;11.83;7.77;;;;;;;;;;5095305;28;20467;-72
2023/05/07 00:25:32;;;;;;;8.37;7.00;;;;;;;;;;5094994;28;20454;-72
2023/05/07 00:28:03;;;;;;;8.37;7.57;;;;;;;;;;5095648;28;20447;-72
2023/05/07 00:30:30;;;;;;;7.37;6.67;;;;;;;;;;5095773;28;20553;-72
2023/05/07 00:32:59;;;;;;;7.93;6.47;;;;;;;;;;5095576;28;20879;-72
2023/05/07 00:35:26;;;;;;;7.00;6.30;;;;;;;;;;5095432;28;20461;-72
2023/05/07 00:37:53;;;;;;;6.00;5.40;;;;;;;;;;5095649;28;20481;-72
2023/05/07 00:40:20;;;;;;;7.43;5.80;;;;;;;;;;5095391;28;20443;-72
2023/05/07 00:42:48;;;;;;;5.50;5.00;;;;;;;;;;5095306;28;20474;-72
2023/05/07 00:45:16;;;;;;;7.80;6.17;;;;;;;;;;5095334;28;20469;-72
2023/05/07 00:47:43;;;;;;;9.63;6.70;;;;;;;;;;5095502;28;20812;-72
2023/05/07 00:50:12;;;;;;;7.67;5.70;;;;;;;;;;5095196;28;20446;-72
2023/05/07 00:52:39;;;;;;;6.67;6.07;;;;;;;;;;5095282;28;20470;-72
2023/05/07 00:55:07;;;;;;;7.97;6.60;;;;;;;;;;5095191;28;20549;-72
2023/05/07 00:57:37;;;;;;;6.50;5.80;;;;;;;;;;5094978;28;21068;-72
2023/05/07 01:00:05;;;;;;;9.40;6.07;;;;;;;;;;5095244;28;20447;-72
2023/05/07 01:02:32;;;;;;;6.83;5.93;;;;;;;;;;5094967;28;20852;-72
2023/05/07 01:04:59;;;;;;;9.90;6.63;;;;;;;;;;5094781;28;20520;-72
2023/05/07 01:07:28;;;;;;;9.00;8.10;;;;;;;;;;5094869;28;20785;-72
2023/05/07 01:09:55;;;;;;;10.10;9.07;;;;;;;;;;5094994;28;20868;-72
2023/05/07 01:12:22;;;;;;;15.63;9.47;;;;;;;;;;5094765;28;20889;-73
2023/05/07 01:14:50;;;;;;;16.30;7.50;;;;;;;;;;5094530;28;20455;-72
2023/05/07 01:17:17;;;;;;;10.63;7.80;;;;;;;;;;5094598;28;20494;-72
2023/05/07 01:19:44;;;;;;;10.30;6.10;;;;;;;;;;5094738;28;20861;-72
2023/05/07 01:22:12;;;;;;;7.57;6.80;;;;;;;;;;5094428;28;20554;-72
2023/05/07 01:24:41;;;;;;;7.37;6.23;;;;;;;;;;5094455;28;20489;-72
2023/05/07 01:27:08;;;;;;;8.27;7.23;;;;;;;;;;5094698;28;20453;-72
2023/05/07 01:29:35;;;;;;;7.70;7.00;;;;;;;;;;5094384;28;20497;-72
2023/05/07 01:32:02;;;;;;;8.30;6.90;;;;;;;;;;5094242;28;20446;-72
2023/05/07 01:34:31;;;;;;;7.93;7.13;;;;;;;;;;5094220;28;20963;-72
2023/05/07 01:37:00;;;;;;;9.50;7.30;;;;;;;;;;5094155;28;21025;-72
2023/05/07 01:39:27;;;;;;;11.87;7.87;;;;;;;;;;5093743;28;20443;-72
2023/05/07 01:41:56;;;;;;;10.07;7.63;;;;;;;;;;5094190;28;20455;-73
2023/05/07 01:44:23;;;;;;;9.67;7.57;;;;;;;;;;5093967;28;20479;-72
2023/05/07 01:46:51;;;;;;;10.83;8.13;;;;;;;;;;5094053;28;20459;-72
2023/05/07 01:49:18;;;;;;;9.57;7.67;;;;;;;;;;5094321;28;20466;-72
2023/05/07 01:51:45;;;;;;;8.03;7.33;;;;;;;;;;5094105;28;20454;-72
2023/05/07 01:54:12;;;;;;;16.63;8.20;;;;;;;;;;5093861;28;20458;-72
2023/05/07 01:56:39;;;;;;;8.87;7.60;;;;;;;;;;5093863;28;20491;-72
2023/05/07 01:59:08;;;;;;;10.47;8.67;;;;;;;;;;5093863;28;20455;-72
2023/05/07 02:01:35;;;;;;;18.73;7.50;;;;;;;;;;5093906;28;20457;-72
2023/05/07 02:04:02;;;;;;;8.13;7.40;;;;;;;;;;5093666;28;20504;-72
2023/05/07 02:06:30;;;;;;;9.93;8.17;;;;;;;;;;5093823;28;20450;-72
2023/05/07 02:08:57;;;;;;;8.17;7.37;;;;;;;;;;5093820;28;20857;-72
2023/05/07 02:11:25;;;;;;;8.87;7.97;;;;;;;;;;5093686;28;20856;-72
2023/05/07 02:13:52;;;;;;;11.00;8.87;;;;;;;;;;5093490;28;20562;-72
2023/05/07 02:16:22;;;;;;;10.23;9.23;;;;;;;;;;5093595;28;20528;-72
2023/05/07 02:18:49;;;;;;;9.53;8.63;;;;;;;;;;5093780;28;20825;-72
2023/05/07 02:21:16;;;;;;;10.03;9.13;;;;;;;;;;5093510;28;20947;-72
2023/05/07 02:23:43;;;;;;;11.60;9.10;;;;;;;;;;5093031;28;20482;-72
2023/05/07 02:26:10;;;;;;;10.93;9.43;;;;;;;;;;5093765;28;20504;-72
2023/05/07 02:28:37;;;;;;;10.73;9.67;;;;;;;;;;5093539;28;20447;-72
2023/05/07 02:31:05;;;;;;;10.00;8.87;;;;;;;;;;5093626;28;20451;-72
2023/05/07 02:33:34;;;;;;;10.30;9.20;;;;;;;;;;5093243;28;20494;-72
2023/05/07 02:36:06;;;;;;;10.03;9.00;;;;;;;;;;5093322;28;20450;-72
2023/05/07 02:38:33;;;;;;;9.60;8.30;;;;;;;;;;5093213;28;20812;-72
2023/05/07 02:41:00;;;;;;;13.03;10.57;;;;;;;;;;5093442;28;20462;-72
2023/05/07 02:43:28;;;;;;;9.93;8.83;;;;;;;;;;5093225;28;20471;-72
2023/05/07 02:46:02;;;;;;;11.07;8.93;;;;;;;;;;5093307;28;20462;-72
2023/05/07 02:48:29;;;;;;;12.60;10.17;;;;;;;;;;5093220;28;20496;-72
2023/05/07 02:50:57;;;;;;;13.97;10.53;;;;;;;;;;5093224;28;20820;-72
2023/05/07 02:53:26;;;;;;;10.70;9.67;;;;;;;;;;5093220;28;20470;-72
2023/05/07 02:55:53;;;;;;;13.80;8.50;;;;;;;;;;5093126;28;20866;-72
2023/05/07 02:58:20;;;;;;;11.60;8.93;;;;;;;;;;5092977;28;20490;-72
2023/05/07 03:00:47;;;;;;;11.03;9.87;;;;;;;;;;5093279;28;20446;-72
2023/05/07 03:03:14;;;;;;;11.17;9.60;;;;;;;;;;5093006;28;20868;-72
2023/05/07 03:05:42;;;;;;;14.07;10.50;;;;;;;;;;5092944;28;20936;-72
2023/05/07 03:08:10;;;;;;;11.67;10.47;;;;;;;;;;5093033;28;20808;-72
2023/05/07 03:10:38;;;;;;;13.83;9.63;;;;;;;;;;5093132;28;20458;-72
2023/05/07 03:13:05;;;;;;;11.60;10.37;;;;;;;;;;5092898;28;20839;-72
2023/05/07 03:15:32;;;;;;;12.93;10.30;;;;;;;;;;5092670;28;20508;-72
2023/05/07 03:18:00;;;;;;;11.30;10.20;;;;;;;;;;5093072;28;20482;-72
2023/05/07 03:20:27;;;;;;;10.47;9.33;;;;;;;;;;5092789;28;20455;-72
2023/05/07 03:22:55;;;;;;;10.00;9.00;;;;;;;;;;5092478;28;20470;-72
2023/05/07 03:25:23;;;;;;;12.23;8.30;;;;;;;;;;5092629;28;20457;-72
2023/05/07 03:27:50;;;;;;;10.73;9.50;;;;;;;;;;5092967;28;20821;-72
2023/05/07 03:30:18;;;;;;;16.20;10.37;;;;;;;;;;5092779;28;20515;-72
2023/05/07 03:32:45;;;;;;;11.00;9.23;;;;;;;;;;5092733;28;20481;-70
2023/05/07 03:35:12;;;;;;;10.63;9.00;;;;;;;;;;5092688;28;20450;-70
2023/05/07 03:37:39;;;;;;;9.80;8.80;;;;;;;;;;5093107;28;20897;-70
2023/05/07 03:40:07;;;;;;;9.83;8.37;;;;;;;;;;5092849;28;20459;-72
2023/05/07 03:42:36;;;;;;;13.07;9.70;;;;;;;;;;5092562;28;20586;-72
2023/05/07 03:45:03;;;;;;;16.23;10.03;;;;;;;;;;5092223;28;20446;-72
2023/05/07 03:47:30;;;;;;;12.90;10.00;;;;;;;;;;5092595;28;20544;-72
2023/05/07 03:49:57;;;;;;;13.90;10.57;;;;;;;;;;5092837;28;20451;-72
2023/05/07 03:52:25;;;;;;;12.20;11.00;;;;;;;;;;5092655;28;20935;-70
2023/05/07 03:54:52;;;;;;;15.63;9.27;;;;;;;;;;5092327;28;20455;-69
2023/05/07 03:57:20;;;;;;;11.77;9.77;;;;;;;;;;5092487;28;21010;-69
2023/05/07 03:59:48;;;;;;;12.70;9.93;;;;;;;;;;5092674;28;20827;-71
2023/05/07 04:02:15;;;;;;;15.53;9.30;;;;;;;;;;5094734;28;20523;-72
2023/05/07 04:04:42;;;;;;;13.43;10.10;;;;;;;;;;5096056;28;20531;-72
2023/05/07 04:07:09;;;;;;;11.53;9.27;;;;;;;;;;5096143;28;20455;-72
2023/05/07 04:09:36;;;;;;;13.67;9.23;;;;;;;;;;5095990;28;20546;-72
2023/05/07 04:12:04;;;;;;;10.67;9.50;;;;;;;;;;5096098;28;20474;-72
2023/05/07 04:14:32;;;;;;;12.87;9.53;;;;;;;;;;5095746;28;20450;-72
2023/05/07 04:17:00;;;;;;;13.17;9.80;;;;;;;;;;5095988;28;20489;-72
2023/05/07 04:19:27;;;;;;;10.20;8.90;;;;;;;;;;5095833;28;20454;-72
2023/05/07 04:21:54;;;;;;;10.10;9.10;;;;;;;;;;5095429;28;20451;-71
2023/05/07 04:24:21;;;;;;;9.60;8.70;;;;;;;;;;5095592;28;20451;-72
2023/05/07 04:26:48;;;;;;;12.60;9.63;;;;;;;;;;5095860;28;20454;-72
2023/05/07 04:29:15;;;;;;;11.43;10.17;;;;;;;;;;5095728;28;20455;-72
2023/05/07 04:31:44;;;;;;;11.67;9.00;;;;;;;;;;5095840;28;20462;-72
2023/05/07 04:34:12;;;;;;;11.73;9.30;;;;;;;;;;5095445;28;20455;-72
2023/05/07 04:36:39;;;;;;;11.20;9.40;;;;;;;;;;5095644;28;20463;-72
2023/05/07 04:39:07;;;;;;;14.40;9.70;;;;;;;;;;5095618;28;20486;-72
2023/05/07 04:41:35;;;;;;;9.27;8.37;;;;;;;;;;5095449;28;20562;-72
2023/05/07 04:44:04;;;;;;;11.03;9.63;;;;;;;;;;5095098;28;20479;-72
2023/05/07 04:46:31;;;;;;;11.20;8.80;;;;;;;;;;5095293;28;20466;-72
2023/05/07 04:48:58;;;;;;;10.70;8.43;;;;;;;;;;5095374;28;20447;-72
2023/05/07 04:51:27;;;;;;;12.60;9.10;;;;;;;;;;5095324;28;20451;-72
2023/05/07 04:53:54;;;;;;;9.87;8.93;;;;;;;;;;5095081;28;20510;-72
2023/05/07 04:56:21;;;;;;;8.73;7.83;;;;;;;;;;5095268;28;20451;-72
2023/05/07 04:58:49;;;;;;;8.57;7.77;;;;;;;;;;5095113;28;20482;-72
2023/05/07 05:01:17;;;;;;;8.10;7.30;;;;;;;;;;5095291;28;20512;-72
2023/05/07 05:03:44;;;;;;;7.87;7.10;;;;;;;;;;5094911;28;20478;-72
2023/05/07 05:06:11;;;;;;;8.13;7.33;;;;;;;;;;5095060;28;20454;-72
2023/05/07 05:08:39;;;;;;;7.63;6.93;;;;;;;;;;5094888;28;20971;-72
2023/05/07 05:11:06;;;;;;;8.23;7.07;;;;;;;;;;5094886;28;20450;-73
2023/05/07 05:13:33;;;;;;;7.90;7.30;;;;;;;;;;5094527;28;20573;-73
2023/05/07 05:16:00;;;;;;;7.70;6.50;;;;;;;;;;5094864;28;20545;-73
2023/05/07 05:18:28;;;;;;;9.97;6.23;;;;;;;;;;5094643;28;20486;-73
2023/05/07 05:20:55;;;;;;;7.07;6.47;;;;;;;;;;5094744;28;20457;-73
2023/05/07 05:23:22;;;;;;;7.37;6.57;;;;;;;;;;5094204;28;20517;-73
2023/05/07 05:25:50;;;;;;;6.67;6.07;;;;;;;;;;5094525;28;20450;-73
2023/05/07 05:28:17;;;;;;;7.07;6.47;;;;;;;;;;5094741;28;20940;-73
2023/05/07 05:30:44;;;;;;;7.10;6.43;;;;;;;;;;5094664;28;20451;-73
2023/05/07 05:33:11;;;;;;;8.40;5.97;;;;;;;;;;5094623;28;20497;-73
2023/05/07 05:35:39;;;;;;;8.10;6.57;;;;;;;;;;5094271;28;20458;-73
2023/05/07 05:38:06;;;;;;;6.60;5.87;;;;;;;;;;5094442;28;20486;-73
2023/05/07 05:40:33;;;;;;;6.50;6.00;;;;;;;;;;5094393;28;20823;-73
2023/05/07 05:43:01;;;;;;;6.80;6.30;;;;;;;;;;5094294;28;20513;-73
2023/05/07 05:45:28;;;;;;;6.97;6.37;;;;;;;;;;5093861;28;20458;-73
2023/05/07 05:47:57;;;;;;;7.60;6.93;;;;;;;;;;5094285;28;20446;-73
2023/05/07 05:50:24;;;;;;;7.03;6.33;;;;;;;;;;5094180;28;20463;-73
2023/05/07 05:52:51;;;;;;;6.67;6.07;;;;;;;;;;5094180;28;20478;-73
2023/05/07 05:55:19;;;;;;;8.17;6.13;;;;;;;;;;5093834;28;20455;-73
2023/05/07 05:57:46;;;;;;;6.83;6.23;;;;;;;;;;5093953;28;20490;-73
2023/05/07 06:00:15;;;;;;;7.17;6.47;;;;;;;;;;5093861;28;20458;-74
2023/05/07 06:02:43;;;;;;;8.63;6.27;;;;;;;;;;5093922;28;20514;-74
2023/05/07 06:05:10;;;;;;;5.90;5.40;;;;;;;;;;5093865;28;20898;-74
2023/05/07 06:07:37;;;;;;;6.03;5.53;;;;;;;;;;5093806;28;20438;-74
2023/05/07 06:10:05;;;;;;;6.23;5.73;;;;;;;;;;5093931;28;20478;-74
2023/05/07 06:12:32;;;;;;;6.87;6.27;;;;;;;;;;5093741;28;20489;-74
2023/05/07 06:14:59;;;;;;;6.17;5.27;;;;;;;;;;5093495;28;20517;-74
2023/05/07 06:17:27;;;;;;;6.33;5.73;;;;;;;;;;5093468;28;20458;-74
2023/05/07 06:19:54;;;;;;;5.93;5.47;;;;;;;;;;5093643;28;20462;-74
2023/05/07 06:22:22;;;;;;;6.13;5.40;;;;;;;;;;5092787;28;20470;-74
2023/05/07 06:24:49;;;;;;;7.10;5.63;;;;;;;;;;5092904;28;20823;-74
2023/05/07 06:27:16;;;;;;;5.43;5.03;;;;;;;;;;5093470;28;20446;-74
2023/05/07 06:29:43;;;;;;;5.23;4.73;;;;;;;;;;5093612;28;20443;-74
2023/05/07 06:32:10;;;;;;;6.60;5.13;;;;;;;;;;5093409;28;20532;-74
2023/05/07 06:34:39;;;;;;;6.30;5.70;;;;;;;;;;5093290;28;20865;-74
2023/05/07 06:37:06;;;;;;;5.47;4.97;;;;;;;;;;5093523;28;20458;-74
2023/05/07 06:39:33;;;;;;;4.20;3.90;;;;;;;;;;5093276;28;20998;-74
2023/05/07 06:42:01;;;;;;;4.40;4.00;;;;;;;;;;5093176;28;20450;-74
2023/05/07 06:44:28;;;;;;;5.37;4.20;;;;;;;;;;5093080;28;20454;-74
2023/05/07 06:46:55;;;;;;;3.77;3.47;;;;;;;;;;5093283;28;20459;-74
2023/05/07 06:49:22;;;;;;;4.70;4.20;;;;;;;;;;5093279;28;20443;-74
2023/05/07 06:51:51;;;;;;;7.73;4.57;;;;;;;;;;5093007;28;20458;-74
2023/05/07 06:54:18;;;;;;;4.37;3.70;;;;;;;;;;5092963;28;20451;-74
2023/05/07 06:56:45;;;;;;;5.20;4.40;;;;;;;;;;5093191;28;20447;-75
2023/05/07 06:59:12;;;;;;;5.33;3.77;;;;;;;;;;5092860;28;20482;-74
2023/05/07 07:01:39;;;;;;;5.83;3.37;;;;;;;;;;5093062;28;20462;-74
2023/05/07 07:04:06;;;;;;;4.17;3.50;;;;;;;;;;5092806;28;20478;-74
2023/05/07 07:06:33;;;;;;;4.20;3.80;;;;;;;;;;5092974;28;20450;-74
2023/05/07 07:09:02;;;;;;;3.73;3.43;;;;;;;;;;5093147;28;20442;-74
2023/05/07 07:11:29;;;;;;;6.83;3.90;;;;;;;;;;5092926;28;20457;-74
2023/05/07 07:13:56;;;;;;;3.90;3.60;;;;;;;;;;5092935;28;20995;-74
2023/05/07 07:16:23;;;;;;;3.83;3.53;;;;;;;;;;5092885;28;20549;-74
2023/05/07 07:18:50;;;;;;;3.83;3.50;;;;;;;;;;5093028;28;20486;-74
2023/05/07 07:21:17;;;;;;;3.70;3.10;;;;;;;;;;5092788;28;20463;-74
2023/05/07 07:23:44;;;;;;;6.17;3.70;;;;;;;;;;5092432;28;21006;-74
2023/05/07 07:26:13;;;;;;;3.50;3.20;;;;;;;;;;5093122;28;20446;-74
2023/05/07 07:28:46;;;;;;;3.83;3.53;;;;;;;;;;5093097;28;20442;-74
2023/05/07 07:31:14;;;;;;;4.97;4.00;;;;;;;;;;5092976;28;20454;-74
2023/05/07 07:33:41;;;;;;;4.57;4.17;;;;;;;;;;5092513;28;20839;-75
2023/05/07 07:36:08;;;;;;;4.90;4.20;;;;;;;;;;5093546;28;20459;-74
2023/05/07 07:38:35;;;;;;;5.93;5.30;;;;;;;;;;5096446;28;20489;-74
2023/05/07 07:41:03;;;;;;;7.30;5.60;;;;;;;;;;5096729;28;20461;-74
2023/05/07 07:43:31;;;;;;;5.77;5.00;;;;;;;;;;5096270;28;20473;-74
2023/05/07 07:45:58;;;;;;;5.93;5.30;;;;;;;;;;5096540;28;20525;-74
2023/05/07 07:48:25;;;;;;;6.97;5.43;;;;;;;;;;5096611;28;20458;-74
2023/05/07 07:50:52;;;;;;;6.40;5.47;;;;;;;;;;5096485;28;20940;-74
2023/05/07 07:53:20;;;;;;;5.63;5.10;;;;;;;;;;5096272;28;20470;-74
2023/05/07 07:55:47;;;;;;;5.97;5.07;;;;;;;;;;5096285;28;21049;-74
2023/05/07 07:58:14;;;;;;;5.63;5.23;;;;;;;;;;5096157;28;20490;-74
2023/05/07 08:00:43;;;;;;;5.43;4.93;;;;;;;;;;5096366;28;20931;-74
2023/05/07 08:03:11;;;;;;;6.10;5.60;;;;;;;;;;5096110;28;20470;-74
2023/05/07 08:05:38;;;;;;;6.57;4.90;;;;;;;;;;5095973;28;20962;-74
2023/05/07 08:08:06;;;;;;;5.63;5.13;;;;;;;;;;5096049;28;20867;-74
2023/05/07 08:10:34;;;;;;;5.60;5.10;;;;;;;;;;5095993;28;20494;-74
2023/05/07 08:13:03;;;;;;;5.80;5.30;;;;;;;;;;5095933;28;20987;-74
2023/05/07 08:15:30;;;;;;;4.97;4.57;;;;;;;;;;5095848;28;20545;-75
2023/05/07 08:17:59;;;;;;;5.53;5.13;;;;;;;;;;5096014;28;20482;-74
2023/05/07 08:20:27;;;;;;;5.20;4.70;;;;;;;;;;5095906;28;20455;-74
2023/05/07 08:22:55;;;;;;;4.97;4.50;;;;;;;;;;5095286;28;20470;-75
2023/05/07 08:25:22;;;;;;;5.63;5.13;;;;;;;;;;5095617;28;20528;-74
2023/05/07 08:27:49;;;;;;;6.23;5.73;;;;;;;;;;5095893;28;20457;-74
2023/05/07 08:30:16;;;;;;;6.47;5.63;;;;;;;;;;5095706;28;20976;-74
2023/05/07 08:32:43;;;;;;;5.97;5.37;;;;;;;;;;5095604;28;20841;-74
2023/05/07 08:35:12;;;;;;;9.60;8.60;;;;;;;;;;5095357;28;20459;-74
2023/05/07 08:37:39;;;;;;;5.50;4.80;;;;;;;;;;5095387;28;20443;-74
2023/05/07 08:40:07;;;;;;;5.03;4.63;;;;;;;;;;5095407;28;21003;-74
2023/05/07 08:42:37;;;;;;;6.73;5.40;;;;;;;;;;5095388;28;20510;-74
2023/05/07 08:45:05;;;;;;;6.83;5.63;;;;;;;;;;5095100;28;20535;-74
2023/05/07 08:47:36;;;;;;;6.63;5.80;;;;;;;;;;5094857;28;20516;-74
2023/05/07 08:50:03;;;;;;;6.03;5.27;;;;;;;;;;5095458;28;20497;-74
2023/05/07 08:52:32;;;;;;;5.40;4.90;;;;;;;;;;5095238;28;20477;-74
2023/05/07 08:54:59;;;;;;;5.97;5.47;;;;;;;;;;5095298;28;20451;-74
2023/05/07 08:57:26;;;;;;;5.63;5.03;;;;;;;;;;5094887;28;20450;-74
2023/05/07 08:59:53;;;;;;;5.07;4.63;;;;;;;;;;5095137;28;20914;-74
2023/05/07 09:02:20;;;;;;;6.33;5.60;;;;;;;;;;5095026;28;20470;-74
2023/05/07 09:04:47;;;;;;;6.77;6.07;;;;;;;;;;5095082;28;20450;-74
2023/05/07 09:07:14;;;;;;;5.23;4.83;;;;;;;;;;5094943;28;20446;-74
2023/05/07 09:09:43;;;;;;;5.53;5.00;;;;;;;;;;5095186;28;20438;-74
2023/05/07 09:12:10;;;;;;;5.50;5.00;;;;;;;;;;5094837;28;20478;-74
2023/05/07 09:14:37;;;;;;;6.80;5.20;;;;;;;;;;5094484;28;20940;-74
2023/05/07 09:17:04;;;;;;;5.47;4.80;;;;;;;;;;5094896;28;20876;-74
2023/05/07 09:19:32;;;;;;;4.93;4.33;;;;;;;;;;5094571;28;20581;-74
2023/05/07 09:22:02;;;;;;;6.33;4.87;;;;;;;;;;5094036;28;20458;-74
2023/05/07 09:24:33;;;;;;;8.10;3.87;;;;;;;;;;5094291;28;20480;-74
2023/05/07 09:27:02;;;;;;;5.00;4.33;;;;;;;;;;5094678;28;20515;-74
2023/05/07 09:29:30;;;;;;;4.47;4.17;;;;;;;;;;5094699;28;20517;-74
2023/05/07 09:31:57;;;;;;;4.13;3.80;;;;;;;;;;5094360;28;20454;-74
2023/05/07 09:34:24;;;;;;;4.80;4.40;;;;;;;;;;5094216;28;20496;-75
2023/05/07 09:36:51;;;;;;;4.90;4.50;;;;;;;;;;5094387;28;20467;-74
2023/05/07 09:39:18;;;;;;;5.97;5.37;;;;;;;;;;5094164;28;20866;-74
2023/05/07 09:41:45;;;;;;;4.63;4.23;;;;;;;;;;5094539;28;20963;-74
2023/05/07 09:44:14;;;;;;;4.63;4.23;;;;;;;;;;5094242;28;20447;-74
2023/05/07 09:46:43;;;;;;;4.07;3.73;;;;;;;;;;5094229;28;20454;-74
2023/05/07 09:49:14;;;;;;;4.20;3.80;;;;;;;;;;5094094;28;20451;-74
2023/05/07 09:51:44;;;;;;;10.17;3.70;;;;;;;;;;5094197;28;20447;-74
2023/05/07 09:54:12;;;;;;;5.30;4.80;;;;;;;;;;5094133;28;20461;-74
2023/05/07 09:56:41;;;;;;;4.43;3.83;;;;;;;;;;5094016;28;20459;-74
2023/05/07 09:59:10;;;;;;;7.93;4.27;;;;;;;;;;5093253;28;20569;-74
2023/05/07 10:01:39;;;;;;;4.33;3.93;;;;;;;;;;5094264;28;20458;-74
2023/05/07 10:04:08;;;;;;;13.30;10.03;;;;;;;;;;5093733;28;20528;-74
2023/05/07 10:06:35;;;;;;;4.70;4.30;;;;;;;;;;5093703;28;20454;-74
2023/05/07 10:09:05;;;;;;;4.23;3.70;;;;;;;;;;5093872;28;20447;-74
2023/05/07 10:11:34;;;;;;;4.27;3.93;;;;;;;;;;5093917;28;21376;-74
2023/05/07 10:14:01;;;;;;;5.80;4.47;;;;;;;;;;5093448;28;20477;-74
2023/05/07 10:16:29;;;;;;;6.63;4.37;;;;;;;;;;5093787;28;20500;-74
2023/05/07 10:18:57;;;;;;;13.27;4.47;;;;;;;;;;5093624;28;20490;-75
2023/05/07 10:21:25;;;;;;;7.20;4.60;;;;;;;;;;5093617;28;20959;-74
2023/05/07 10:23:55;;;;;;;4.53;4.10;;;;;;;;;;5092772;28;20551;-74
2023/05/07 10:26:23;;;;;;;5.87;4.30;;;;;;;;;;5093532;28;20454;-75
2023/05/07 10:28:52;;;;;;;4.87;4.47;;;;;;;;;;5093524;28;20458;-74
2023/05/07 10:31:27;;;;;;;3.90;3.60;;;;;;;;;;5093404;28;20487;-74
2023/05/07 10:33:56;;;;;;;4.67;4.27;;;;;;;;;;5093263;28;20477;-74
2023/05/07 10:36:26;;;;;;;4.47;3.90;;;;;;;;;;5093402;28;20528;-74
2023/05/07 10:38:53;;;;;;;4.90;4.13;;;;;;;;;;5093339;28;20458;-74
2023/05/07 10:41:20;;;;;;;5.50;4.50;;;;;;;;;;5093322;28;20447;-74
2023/05/07 10:43:48;;;;;;;4.43;4.03;;;;;;;;;;5093125;28;20475;-74
2023/05/07 10:46:16;;;;;;;4.70;4.30;;;;;;;;;;5093203;28;20462;-74
2023/05/07 10:49:01;;;;;;;5.07;4.67;;;;;;;;;;5093344;28;20459;-74
2023/05/07 10:51:31;;;;;;;4.83;4.40;;;;;;;;;;5083098;28;20967;-74
2023/05/07 10:54:14;;;;;;;5.00;4.37;;;;;;;;;;5092921;28;20466;-74
2023/05/07 10:56:42;;;;;;;4.37;4.00;;;;;;;;;;5093006;28;20948;-74
2023/05/07 10:59:31;;;;;;;4.33;4.03;;;;;;;;;;5093196;28;20607;-74
2023/05/07 11:01:58;;;;;;;4.20;3.80;;;;;;;;;;5088578;28;20450;-74
2023/05/07 11:04:27;;;;;;;11.13;4.40;;;;;;;;;;5092763;28;20459;-74
2023/05/07 11:07:13;;;;;;;3.70;3.40;;;;;;;;;;5093266;28;20447;-75
2023/05/07 11:09:58;;;;;;;5.30;4.80;;;;;;;;;;5093044;28;20434;-74
2023/05/07 11:12:40;;;;;;;4.40;4.07;;;;;;;;;;5097127;28;20472;-74
2023/05/07 11:15:08;;;;;;;4.33;3.93;;;;;;;;;;5084572;28;20467;-74
2023/05/07 11:17:36;;;;;;;5.30;3.90;;;;;;;;;;5097112;28;20484;-74
2023/05/07 11:20:05;;;;;;;4.97;4.30;;;;;;;;;;5097099;28;20489;-74
2023/05/07 11:22:39;;;;;;;5.93;4.80;;;;;;;;;;5096271;28;20505;-74
2023/05/07 11:25:08;;;;;;;3.37;3.07;;;;;;;;;;5097074;28;20445;-74
2023/05/07 11:27:35;;;;;;;4.03;3.60;;;;;;;;;;5097009;28;20449;-74
2023/05/07 11:30:02;;;;;;;4.27;3.87;;;;;;;;;;5096938;28;20446;-74
2023/05/07 11:32:30;;;;;;;3.20;2.90;;;;;;;;;;5096633;28;20478;-74
2023/05/07 11:34:58;;;;;;;3.47;3.17;;;;;;;;;;5096932;28;20451;-74
2023/05/07 11:37:26;;;;;;;3.43;3.10;;;;;;;;;;5096845;28;20447;-74
2023/05/07 11:40:03;;;;;;;3.77;3.43;;;;;;;;;;5096760;28;20482;-74
2023/05/07 11:42:32;;;;;;;3.40;3.10;;;;;;;;;;5096518;28;20474;-74
2023/05/07 11:45:00;;;;;;;2.70;2.50;;;;;;;;;;5096376;28;20943;-74
2023/05/07 11:47:27;;;;;;;4.30;3.90;;;;;;;;;;5096805;28;20450;-74
2023/05/07 11:49:55;;;;;;;4.20;3.90;;;;;;;;;;5096561;28;20476;-74
2023/05/07 11:52:22;;;;;;;2.90;2.70;;;;;;;;;;5096386;28;20470;-74
2023/05/07 11:54:53;;;;;;;3.30;3.00;;;;;;;;;;5096212;28;20446;-74
2023/05/07 11:57:20;;;;;;;3.47;3.17;;;;;;;;;;5096249;28;20454;-74
2023/05/07 11:59:48;;;;;;;3.87;3.57;;;;;;;;;;5096199;28;20490;-74
2023/05/07 12:02:16;;;;;;;3.07;2.77;;;;;;;;;;5096228;28;20498;-74
2023/05/07 12:04:43;;;;;;;3.20;2.90;;;;;;;;;;5095999;28;20458;-74
2023/05/07 12:07:13;;;;;;;3.17;2.77;;;;;;;;;;5096260;28;20447;-74
2023/05/07 12:09:40;;;;;;;3.20;2.90;;;;;;;;;;5096256;28;20530;-74
2023/05/07 12:12:07;;;;;;;3.90;3.60;;;;;;;;;;5096064;28;20485;-74
2023/05/07 12:14:34;;;;;;;3.00;2.70;;;;;;;;;;5095824;28;20459;-74
2023/05/07 12:17:04;;;;;;;3.23;2.77;;;;;;;;;;5096309;28;20458;-74
2023/05/07 12:19:31;;;;;;;4.17;2.80;;;;;;;;;;5095752;28;20490;-74
2023/05/07 12:21:59;;;;;;;4.17;3.20;;;;;;;;;;5094361;28;20457;-74
2023/05/07 12:24:26;;;;;;;4.80;3.90;;;;;;;;;;5095729;28;20451;-74
2023/05/07 12:26:53;;;;;;;3.90;3.50;;;;;;;;;;5095920;28;20463;-73
2023/05/07 12:29:23;;;;;;;3.73;3.43;;;;;;;;;;5095899;28;20453;-74
2023/05/07 12:31:51;;;;;;;3.57;3.20;;;;;;;;;;5096040;28;20480;-73
2023/05/07 12:34:19;;;;;;;7.50;3.80;;;;;;;;;;5095467;28;20458;-73
2023/05/07 12:36:49;;;;;;;3.20;3.00;;;;;;;;;;5095992;28;20446;-73
2023/05/07 12:39:16;;;;;;;3.13;2.83;;;;;;;;;;5096284;28;20451;-73
2023/05/07 12:41:56;;;;;;;6.63;2.67;;;;;;;;;;5095941;28;20442;-73
2023/05/07 12:44:24;;;;;;;9.93;3.63;;;;;;;;;;5095722;28;20954;-73
2023/05/07 12:46:51;;;;;;;4.77;2.77;;;;;;;;;;5095653;28;20486;-73
2023/05/07 12:49:20;;;;;;;5.43;3.17;;;;;;;;;;5095782;28;20427;-73
2023/05/07 12:51:48;;;;;;;3.33;3.03;;;;;;;;;;5095592;28;20545;-73
2023/05/07 12:54:15;;;;;;;4.53;3.63;;;;;;;;;;5095257;28;20442;-72
2023/05/07 12:56:42;;;;;;;4.93;3.10;;;;;;;;;;5095381;28;20450;-73
2023/05/07 12:59:09;;;;;;;3.30;3.00;;;;;;;;;;5095283;28;20454;-73
2023/05/07 13:01:36;;;;;;;6.67;3.30;;;;;;;;;;5095461;28;20486;-73
2023/05/07 13:04:05;;;;;;;3.30;2.53;;;;;;;;;;5095281;28;20482;-73
2023/05/07 13:06:33;;;;;;;2.87;2.60;;;;;;;;;;5095427;28;20883;-73
2023/05/07 13:09:01;;;;;;;5.77;2.97;;;;;;;;;;5095336;28;20477;-73
2023/05/07 13:11:28;;;;;;;2.87;2.67;;;;;;;;;;5095084;28;20439;-73
2023/05/07 13:13:55;;;;;;;2.93;2.40;;;;;;;;;;5094756;28;20479;-73
2023/05/07 13:16:22;;;;;;;2.73;2.30;;;;;;;;;;5095209;28;20820;-73
2023/05/07 13:18:49;;;;;;;3.50;3.20;;;;;;;;;;5095193;28;20528;-73
2023/05/07 13:21:16;;;;;;;5.83;3.20;;;;;;;;;;5095084;28;20483;-73
2023/05/07 13:23:44;;;;;;;4.53;2.70;;;;;;;;;;5094361;28;20478;-73
2023/05/07 13:26:11;;;;;;;3.87;3.30;;;;;;;;;;5094717;28;20530;-73
2023/05/07 13:28:39;;;;;;;2.70;2.50;;;;;;;;;;5094896;28;20940;-73
2023/05/07 13:31:06;;;;;;;8.13;2.60;;;;;;;;;;5095004;28;20788;-74
2023/05/07 13:33:33;;;;;;;3.10;2.80;;;;;;;;;;5094748;28;20479;-73
2023/05/07 13:36:00;;;;;;;3.83;2.60;;;;;;;;;;5094884;28;20466;-73
2023/05/07 13:38:27;;;;;;;3.97;3.37;;;;;;;;;;5094794;28;20481;-73
2023/05/07 13:40:56;;;;;;;3.53;3.03;;;;;;;;;;5094325;28;20478;-73
2023/05/07 13:43:23;;;;;;;3.10;2.80;;;;;;;;;;5094561;28;20497;-73
2023/05/07 13:45:50;;;;;;;3.40;2.60;;;;;;;;;;5094199;28;20467;-73
2023/05/07 13:48:17;;;;;;;3.40;3.10;;;;;;;;;;5094671;28;20940;-73
2023/05/07 13:50:44;;;;;;;3.10;2.80;;;;;;;;;;5094258;28;20457;-73
2023/05/07 13:53:11;;;;;;;4.60;2.80;;;;;;;;;;5094517;28;20971;-73
2023/05/07 13:55:38;;;;;;;3.50;2.50;;;;;;;;;;5094421;28;20457;-73
2023/05/07 13:58:07;;;;;;;3.23;2.90;;;;;;;;;;5094511;28;20496;-73
2023/05/07 14:00:34;;;;;;;3.70;3.40;;;;;;;;;;5094034;28;20483;-73
2023/05/07 14:03:01;;;;;;;6.13;3.40;;;;;;;;;;5094315;28;20478;-73
2023/05/07 14:05:28;;;;;;;4.40;2.60;;;;;;;;;;5094262;28;20454;-73
2023/05/07 14:07:56;;;;;;;4.00;3.60;;;;;;;;;;5094181;28;20970;-72
2023/05/07 14:10:23;;;;;;;8.90;7.63;;;;;;;;;;5094123;28;20443;-73
2023/05/07 14:12:50;;;;;;;4.73;3.17;;;;;;;;;;5093857;28;20471;-73
2023/05/07 14:15:19;;;;;;;3.10;2.90;;;;;;;;;;5094017;28;20451;-73
2023/05/07 14:17:46;;;;;;;4.23;2.37;;;;;;;;;;5094284;28;20508;-73
2023/05/07 14:20:14;;;;;;;3.63;3.17;;;;;;;;;;5093973;28;20478;-73
2023/05/07 14:22:41;;;;;;;4.10;2.43;;;;;;;;;;5093825;28;20482;-73
2023/05/07 14:25:09;;;;;;;4.90;4.50;;;;;;;;;;5094069;28;20438;-74
2023/05/07 14:27:36;;;;;;;10.23;6.53;;;;;;;;;;5093543;28;20443;-73
2023/05/07 14:30:03;;;;;;;3.90;2.77;;;;;;;;;;5093987;28;20434;-73
2023/05/07 14:32:32;;;;;;;3.77;3.03;;;;;;;;;;5093549;28;20477;-73
2023/05/07 14:34:59;;;;;;;6.23;3.13;;;;;;;;;;5093300;28;20625;-72
2023/05/07 14:37:26;;;;;;;5.53;4.80;;;;;;;;;;5093754;28;20942;-73
2023/05/07 14:39:53;;;;;;;15.43;9.40;;;;;;;;;;5093785;28;20477;-73
2023/05/07 14:42:20;;;;;;;2.37;2.10;;;;;;;;;;5093761;28;20489;-73
2023/05/07 14:44:48;;;;;;;3.23;2.20;;;;;;;;;;5093030;28;20459;-73